sensor_id;sensor_type;location;lat;lon;timestamp;temperature;humidity
18597;DHT22;9428;50.950;6.912;2023-01-31T00:01:38;6.20;99.90
18597;DHT22;9428;50.950;6.912;2023-01-31T00:04:26;5.30;99.90
18597;DHT22;9428;50.950;6.912;2023-01-31T00:07:14;6.10;99.90
18597;DHT22;9428;50.950;6.912;2023-01-31T00:10:02;6.10;99.90
18597;DHT22;9428;50.950;6.912;2023-01-31T00:12:50;6.10;99.90
18597;DHT22;9428;50.950;6.912;2023-01-31T00:15:37;6.10;99.90
18597;DHT22;9428;50.950;6.912;2023-01-31T00:18:25;6.20;99.90
18597;DHT22;9428;50.950;6.912;2023-01-31T00:21:15;6.20;99.90
18597;DHT22;9428;50.950;6.912;2023-01-31T00:24:04;6.20;99.90
18597;DHT22;9428;50.950;6.912;2023-01-31T00:26:52;6.20;99.90
18597;DHT22;9428;50.950;6.912;2023-01-31T00:29:41;6.20;99.90
18597;DHT22;9428;50.950;6.912;2023-01-31T00:32:29;6.20;99.90
18597;DHT22;9428;50.950;6.912;2023-01-31T00:35:16;6.30;99.90
18597;DHT22;9428;50.950;6.912;2023-01-31T00:38:03;6.20;99.90
18597;DHT22;9428;50.950;6.912;2023-01-31T00:40:53;6.50;99.90
18597;DHT22;9428;50.950;6.912;2023-01-31T00:43:40;6.10;99.90
18597;DHT22;9428;50.950;6.912;2023-01-31T00:46:28;6.20;99.90
18597;DHT22;9428;50.950;6.912;2023-01-31T00:49:15;6.10;99.90
18597;DHT22;9428;50.950;6.912;2023-01-31T00:52:03;6.20;99.90
18597;DHT22;9428;50.950;6.912;2023-01-31T00:54:50;6.00;99.90
18597;DHT22;9428;50.950;6.912;2023-01-31T00:57:39;6.00;99.90
18597;DHT22;9428;50.950;6.912;2023-01-31T01:00:26;6.00;99.90
18597;DHT22;9428;50.950;6.912;2023-01-31T01:03:14;5.90;99.90
18597;DHT22;9428;50.950;6.912;2023-01-31T01:06:01;5.80;99.90
18597;DHT22;9428;50.950;6.912;2023-01-31T01:08:48;5.80;99.90
18597;DHT22;9428;50.950;6.912;2023-01-31T01:11:35;5.80;99.90
18597;DHT22;9428;50.950;6.912;2023-01-31T01:14:24;5.80;99.90
18597;DHT22;9428;50.950;6.912;2023-01-31T01:17:12;5.80;99.90
18597;DHT22;9428;50.950;6.912;2023-01-31T01:19:59;5.80;99.90
18597;DHT22;9428;50.950;6.912;2023-01-31T01:22:48;5.90;99.90
18597;DHT22;9428;50.950;6.912;2023-01-31T01:25:41;5.90;99.90
18597;DHT22;9428;50.950;6.912;2023-01-31T01:28:28;5.80;99.90
18597;DHT22;9428;50.950;6.912;2023-01-31T01:31:20;6.20;99.90
18597;DHT22;9428;50.950;6.912;2023-01-31T01:34:10;5.90;99.90
18597;DHT22;9428;50.950;6.912;2023-01-31T01:36:58;6.00;99.90
18597;DHT22;9428;50.950;6.912;2023-01-31T01:39:45;5.90;99.90
18597;DHT22;9428;50.950;6.912;2023-01-31T01:42:34;5.90;99.90
18597;DHT22;9428;50.950;6.912;2023-01-31T01:45:21;5.80;99.90
18597;DHT22;9428;50.950;6.912;2023-01-31T01:48:14;5.80;99.90
18597;DHT22;9428;50.950;6.912;2023-01-31T01:51:03;5.70;99.90
18597;DHT22;9428;50.950;6.912;2023-01-31T01:53:56;5.80;99.90
18597;DHT22;9428;50.950;6.912;2023-01-31T01:56:48;5.90;99.90
18597;DHT22;9428;50.950;6.912;2023-01-31T01:59:42;5.80;99.90
18597;DHT22;9428;50.950;6.912;2023-01-31T02:02:30;5.90;99.90
18597;DHT22;9428;50.950;6.912;2023-01-31T02:05:23;5.90;99.90
18597;DHT22;9428;50.950;6.912;2023-01-31T02:08:11;6.00;99.90
18597;DHT22;9428;50.950;6.912;2023-01-31T02:11:02;5.90;99.90
18597;DHT22;9428;50.950;6.912;2023-01-31T02:13:52;5.80;99.90
18597;DHT22;9428;50.950;6.912;2023-01-31T02:16:41;5.80;99.90
18597;DHT22;9428;50.950;6.912;2023-01-31T02:19:34;5.90;99.90
18597;DHT22;9428;50.950;6.912;2023-01-31T02:22:30;5.90;99.90
18597;DHT22;9428;50.950;6.912;2023-01-31T02:25:49;5.90;99.90
18597;DHT22;9428;50.950;6.912;2023-01-31T02:28:58;5.80;99.90
18597;DHT22;9428;50.950;6.912;2023-01-31T02:35:21;5.80;99.90
18597;DHT22;9428;50.950;6.912;2023-01-31T02:38:22;5.90;99.90
18597;DHT22;9428;50.950;6.912;2023-01-31T02:41:16;5.80;99.90
18597;DHT22;9428;50.950;6.912;2023-01-31T02:44:10;5.80;99.90
18597;DHT22;9428;50.950;6.912;2023-01-31T02:47:24;5.90;99.90
18597;DHT22;9428;50.950;6.912;2023-01-31T02:50:21;5.90;99.90
18597;DHT22;9428;50.950;6.912;2023-01-31T02:53:14;5.90;99.90
18597;DHT22;9428;50.950;6.912;2023-01-31T02:56:06;5.80;99.90
18597;DHT22;9428;50.950;6.912;2023-01-31T02:59:04;5.70;99.90
18597;DHT22;9428;50.950;6.912;2023-01-31T03:01:56;5.70;99.90
18597;DHT22;9428;50.950;6.912;2023-01-31T03:04:44;5.60;99.90
18597;DHT22;9428;50.950;6.912;2023-01-31T03:07:36;5.60;99.90
18597;DHT22;9428;50.950;6.912;2023-01-31T03:10:38;5.60;99.90
18597;DHT22;9428;50.950;6.912;2023-01-31T03:13:41;5.60;99.90
18597;DHT22;9428;50.950;6.912;2023-01-31T03:16:34;5.60;99.90
18597;DHT22;9428;50.950;6.912;2023-01-31T03:20:00;5.70;99.90
18597;DHT22;9428;50.950;6.912;2023-01-31T03:22:55;5.60;99.90
18597;DHT22;9428;50.950;6.912;2023-01-31T03:25:44;5.70;99.90
18597;DHT22;9428;50.950;6.912;2023-01-31T03:28:34;5.70;99.90
18597;DHT22;9428;50.950;6.912;2023-01-31T03:31:25;6.30;99.90
18597;DHT22;9428;50.950;6.912;2023-01-31T03:34:15;5.70;99.90
18597;DHT22;9428;50.950;6.912;2023-01-31T03:37:08;5.80;99.90
18597;DHT22;9428;50.950;6.912;2023-01-31T03:40:03;6.20;99.90
18597;DHT22;9428;50.950;6.912;2023-01-31T03:42:56;5.70;99.90
18597;DHT22;9428;50.950;6.912;2023-01-31T03:45:47;5.60;99.90
18597;DHT22;9428;50.950;6.912;2023-01-31T03:48:41;5.60;99.90
18597;DHT22;9428;50.950;6.912;2023-01-31T03:51:30;5.60;99.90
18597;DHT22;9428;50.950;6.912;2023-01-31T03:54:23;5.60;99.90
18597;DHT22;9428;50.950;6.912;2023-01-31T03:57:15;5.60;99.90
18597;DHT22;9428;50.950;6.912;2023-01-31T04:00:06;5.50;99.90
18597;DHT22;9428;50.950;6.912;2023-01-31T04:03:00;5.60;99.90
18597;DHT22;9428;50.950;6.912;2023-01-31T04:05:50;5.40;99.90
18597;DHT22;9428;50.950;6.912;2023-01-31T04:08:37;5.40;99.90
18597;DHT22;9428;50.950;6.912;2023-01-31T04:11:26;5.40;99.90
18597;DHT22;9428;50.950;6.912;2023-01-31T04:14:15;5.40;99.90
18597;DHT22;9428;50.950;6.912;2023-01-31T04:17:02;5.40;99.90
18597;DHT22;9428;50.950;6.912;2023-01-31T04:19:50;5.40;99.90
18597;DHT22;9428;50.950;6.912;2023-01-31T04:22:37;5.40;99.90
18597;DHT22;9428;50.950;6.912;2023-01-31T04:25:24;5.40;99.90
18597;DHT22;9428;50.950;6.912;2023-01-31T04:28:12;5.30;99.90
18597;DHT22;9428;50.950;6.912;2023-01-31T04:31:00;5.30;99.90
18597;DHT22;9428;50.950;6.912;2023-01-31T04:33:48;5.30;99.90
18597;DHT22;9428;50.950;6.912;2023-01-31T04:36:35;5.40;99.90
18597;DHT22;9428;50.950;6.912;2023-01-31T04:39:22;5.40;99.90
18597;DHT22;9428;50.950;6.912;2023-01-31T04:42:10;5.60;99.90
18597;DHT22;9428;50.950;6.912;2023-01-31T04:44:57;5.30;99.90
18597;DHT22;9428;50.950;6.912;2023-01-31T04:47:46;5.30;99.90
18597;DHT22;9428;50.950;6.912;2023-01-31T04:50:33;5.30;99.90
18597;DHT22;9428;50.950;6.912;2023-01-31T04:53:20;5.30;99.90
18597;DHT22;9428;50.950;6.912;2023-01-31T04:56:07;5.10;99.90
18597;DHT22;9428;50.950;6.912;2023-01-31T04:58:55;5.00;99.90
18597;DHT22;9428;50.950;6.912;2023-01-31T05:01:42;5.00;99.90
18597;DHT22;9428;50.950;6.912;2023-01-31T05:04:30;5.10;99.90
18597;DHT22;9428;50.950;6.912;2023-01-31T05:07:18;5.00;99.90
18597;DHT22;9428;50.950;6.912;2023-01-31T05:10:09;5.00;99.90
18597;DHT22;9428;50.950;6.912;2023-01-31T05:12:56;5.10;99.90
18597;DHT22;9428;50.950;6.912;2023-01-31T05:15:47;5.20;99.90
18597;DHT22;9428;50.950;6.912;2023-01-31T05:18:35;5.10;99.90
18597;DHT22;9428;50.950;6.912;2023-01-31T05:21:24;5.20;99.90
18597;DHT22;9428;50.950;6.912;2023-01-31T05:24:12;5.10;99.90
18597;DHT22;9428;50.950;6.912;2023-01-31T05:27:01;5.20;99.90
18597;DHT22;9428;50.950;6.912;2023-01-31T05:29:48;5.20;99.90
18597;DHT22;9428;50.950;6.912;2023-01-31T05:32:35;5.20;99.90
18597;DHT22;9428;50.950;6.912;2023-01-31T05:35:24;5.30;99.90
18597;DHT22;9428;50.950;6.912;2023-01-31T05:38:13;5.30;99.90
18597;DHT22;9428;50.950;6.912;2023-01-31T05:41:00;5.30;99.90
18597;DHT22;9428;50.950;6.912;2023-01-31T05:43:48;5.50;99.90
18597;DHT22;9428;50.950;6.912;2023-01-31T05:46:35;5.40;99.90
18597;DHT22;9428;50.950;6.912;2023-01-31T05:49:22;5.30;99.90
18597;DHT22;9428;50.950;6.912;2023-01-31T05:52:10;5.40;99.90
18597;DHT22;9428;50.950;6.912;2023-01-31T05:54:58;5.40;99.90
18597;DHT22;9428;50.950;6.912;2023-01-31T05:57:46;5.50;99.90
18597;DHT22;9428;50.950;6.912;2023-01-31T06:00:33;5.40;99.90
18597;DHT22;9428;50.950;6.912;2023-01-31T06:03:20;5.40;99.90
18597;DHT22;9428;50.950;6.912;2023-01-31T06:06:07;5.40;99.90
18597;DHT22;9428;50.950;6.912;2023-01-31T06:08:55;5.40;99.90
18597;DHT22;9428;50.950;6.912;2023-01-31T06:11:43;5.40;99.90
18597;DHT22;9428;50.950;6.912;2023-01-31T06:14:30;5.40;99.90
18597;DHT22;9428;50.950;6.912;2023-01-31T06:17:18;5.50;99.90
18597;DHT22;9428;50.950;6.912;2023-01-31T06:20:06;5.60;99.90
18597;DHT22;9428;50.950;6.912;2023-01-31T06:22:53;5.60;99.90
18597;DHT22;9428;50.950;6.912;2023-01-31T06:25:41;5.60;99.90
18597;DHT22;9428;50.950;6.912;2023-01-31T06:28:29;5.60;99.90
18597;DHT22;9428;50.950;6.912;2023-01-31T06:31:17;5.60;99.90
18597;DHT22;9428;50.950;6.912;2023-01-31T06:34:05;5.70;99.90
18597;DHT22;9428;50.950;6.912;2023-01-31T06:36:52;5.70;99.90
18597;DHT22;9428;50.950;6.912;2023-01-31T06:39:39;5.80;99.90
18597;DHT22;9428;50.950;6.912;2023-01-31T06:42:27;5.80;99.90
18597;DHT22;9428;50.950;6.912;2023-01-31T06:45:15;5.70;99.90
18597;DHT22;9428;50.950;6.912;2023-01-31T06:48:03;5.70;99.90
18597;DHT22;9428;50.950;6.912;2023-01-31T06:50:50;5.70;99.90
18597;DHT22;9428;50.950;6.912;2023-01-31T06:53:37;5.70;99.90
18597;DHT22;9428;50.950;6.912;2023-01-31T06:56:25;5.80;99.90
18597;DHT22;9428;50.950;6.912;2023-01-31T06:59:12;5.10;99.90
18597;DHT22;9428;50.950;6.912;2023-01-31T07:02:01;5.80;99.90
18597;DHT22;9428;50.950;6.912;2023-01-31T07:04:48;5.70;99.90
18597;DHT22;9428;50.950;6.912;2023-01-31T07:07:36;5.70;99.90
18597;DHT22;9428;50.950;6.912;2023-01-31T07:10:23;5.70;99.90
18597;DHT22;9428;50.950;6.912;2023-01-31T07:13:10;5.80;99.90
18597;DHT22;9428;50.950;6.912;2023-01-31T07:15:57;5.80;99.90
18597;DHT22;9428;50.950;6.912;2023-01-31T07:18:46;5.80;99.90
18597;DHT22;9428;50.950;6.912;2023-01-31T07:21:33;6.00;99.90
18597;DHT22;9428;50.950;6.912;2023-01-31T07:24:21;6.00;99.90
18597;DHT22;9428;50.950;6.912;2023-01-31T07:27:11;5.80;99.90
18597;DHT22;9428;50.950;6.912;2023-01-31T07:29:59;5.80;99.90
18597;DHT22;9428;50.950;6.912;2023-01-31T07:32:46;5.90;99.90
18597;DHT22;9428;50.950;6.912;2023-01-31T07:35:35;5.80;99.90
18597;DHT22;9428;50.950;6.912;2023-01-31T07:38:22;5.90;99.90
18597;DHT22;9428;50.950;6.912;2023-01-31T07:41:10;6.70;99.90
18597;DHT22;9428;50.950;6.912;2023-01-31T07:43:58;5.90;99.90
18597;DHT22;9428;50.950;6.912;2023-01-31T07:46:45;5.90;99.90
18597;DHT22;9428;50.950;6.912;2023-01-31T07:49:33;5.90;99.90
18597;DHT22;9428;50.950;6.912;2023-01-31T07:52:22;6.00;99.90
18597;DHT22;9428;50.950;6.912;2023-01-31T07:55:09;6.00;99.90
18597;DHT22;9428;50.950;6.912;2023-01-31T07:57:57;6.00;99.90
18597;DHT22;9428;50.950;6.912;2023-01-31T08:00:44;5.90;99.90
18597;DHT22;9428;50.950;6.912;2023-01-31T08:03:48;6.00;99.90
18597;DHT22;9428;50.950;6.912;2023-01-31T08:06:36;6.00;99.90
18597;DHT22;9428;50.950;6.912;2023-01-31T08:09:26;6.00;99.90
18597;DHT22;9428;50.950;6.912;2023-01-31T08:12:13;6.10;99.90
18597;DHT22;9428;50.950;6.912;2023-01-31T08:15:01;6.10;99.90
18597;DHT22;9428;50.950;6.912;2023-01-31T08:17:48;6.60;99.90
18597;DHT22;9428;50.950;6.912;2023-01-31T08:20:35;5.80;99.90
18597;DHT22;9428;50.950;6.912;2023-01-31T08:23:23;6.10;99.90
18597;DHT22;9428;50.950;6.912;2023-01-31T08:26:14;6.20;99.90
18597;DHT22;9428;50.950;6.912;2023-01-31T08:29:01;6.20;99.90
18597;DHT22;9428;50.950;6.912;2023-01-31T08:31:49;6.20;99.90
18597;DHT22;9428;50.950;6.912;2023-01-31T08:34:37;6.20;99.90
18597;DHT22;9428;50.950;6.912;2023-01-31T08:37:24;6.30;99.90
18597;DHT22;9428;50.950;6.912;2023-01-31T08:40:12;6.40;99.90
18597;DHT22;9428;50.950;6.912;2023-01-31T08:43:01;6.40;99.90
18597;DHT22;9428;50.950;6.912;2023-01-31T08:45:48;6.50;99.90
18597;DHT22;9428;50.950;6.912;2023-01-31T08:48:36;6.40;99.90
18597;DHT22;9428;50.950;6.912;2023-01-31T08:51:24;6.60;99.90
18597;DHT22;9428;50.950;6.912;2023-01-31T08:54:11;6.50;99.90
18597;DHT22;9428;50.950;6.912;2023-01-31T08:56:58;6.60;99.90
18597;DHT22;9428;50.950;6.912;2023-01-31T08:59:47;6.50;99.90
18597;DHT22;9428;50.950;6.912;2023-01-31T09:02:34;6.60;99.90
18597;DHT22;9428;50.950;6.912;2023-01-31T09:05:22;6.60;99.90
18597;DHT22;9428;50.950;6.912;2023-01-31T09:08:12;6.60;99.90
18597;DHT22;9428;50.950;6.912;2023-01-31T09:10:59;6.60;99.90
18597;DHT22;9428;50.950;6.912;2023-01-31T09:13:47;6.70;99.90
18597;DHT22;9428;50.950;6.912;2023-01-31T09:16:37;6.60;99.90
18597;DHT22;9428;50.950;6.912;2023-01-31T09:19:24;6.70;99.90
18597;DHT22;9428;50.950;6.912;2023-01-31T09:22:12;6.70;99.90
18597;DHT22;9428;50.950;6.912;2023-01-31T09:24:59;6.60;99.90
18597;DHT22;9428;50.950;6.912;2023-01-31T09:27:47;6.60;99.90
18597;DHT22;9428;50.950;6.912;2023-01-31T09:30:34;6.70;99.90
18597;DHT22;9428;50.950;6.912;2023-01-31T09:33:23;6.70;99.90
18597;DHT22;9428;50.950;6.912;2023-01-31T09:36:12;6.70;99.90
18597;DHT22;9428;50.950;6.912;2023-01-31T09:38:59;6.80;99.90
18597;DHT22;9428;50.950;6.912;2023-01-31T09:41:49;6.80;99.90
18597;DHT22;9428;50.950;6.912;2023-01-31T09:44:40;6.90;99.90
18597;DHT22;9428;50.950;6.912;2023-01-31T09:47:30;7.00;99.90
18597;DHT22;9428;50.950;6.912;2023-01-31T09:50:22;7.00;99.90
18597;DHT22;9428;50.950;6.912;2023-01-31T09:53:17;6.90;99.90
18597;DHT22;9428;50.950;6.912;2023-01-31T09:56:18;6.90;99.90
18597;DHT22;9428;50.950;6.912;2023-01-31T09:59:14;6.90;99.90
18597;DHT22;9428;50.950;6.912;2023-01-31T10:02:26;6.90;99.90
18597;DHT22;9428;50.950;6.912;2023-01-31T10:05:29;6.90;99.90
18597;DHT22;9428;50.950;6.912;2023-01-31T10:08:27;7.00;99.90
18597;DHT22;9428;50.950;6.912;2023-01-31T10:11:27;7.10;99.90
18597;DHT22;9428;50.950;6.912;2023-01-31T10:14:22;6.90;99.90
18597;DHT22;9428;50.950;6.912;2023-01-31T10:17:15;7.00;99.90
18597;DHT22;9428;50.950;6.912;2023-01-31T10:20:09;7.00;99.90
18597;DHT22;9428;50.950;6.912;2023-01-31T10:23:06;7.00;99.90
18597;DHT22;9428;50.950;6.912;2023-01-31T10:25:59;6.90;99.90
18597;DHT22;9428;50.950;6.912;2023-01-31T10:28:50;7.00;99.90
18597;DHT22;9428;50.950;6.912;2023-01-31T10:31:40;7.10;99.90
18597;DHT22;9428;50.950;6.912;2023-01-31T10:34:32;7.10;99.90
18597;DHT22;9428;50.950;6.912;2023-01-31T10:37:29;7.50;99.90
18597;DHT22;9428;50.950;6.912;2023-01-31T10:40:23;7.20;99.90
18597;DHT22;9428;50.950;6.912;2023-01-31T10:43:17;7.20;99.90
18597;DHT22;9428;50.950;6.912;2023-01-31T10:46:09;7.20;99.90
18597;DHT22;9428;50.950;6.912;2023-01-31T10:48:57;7.20;99.90
18597;DHT22;9428;50.950;6.912;2023-01-31T10:51:54;7.10;99.90
18597;DHT22;9428;50.950;6.912;2023-01-31T10:54:52;7.10;99.90
18597;DHT22;9428;50.950;6.912;2023-01-31T10:57:41;7.10;99.90
18597;DHT22;9428;50.950;6.912;2023-01-31T11:00:31;7.30;99.90
18597;DHT22;9428;50.950;6.912;2023-01-31T11:03:19;7.30;99.90
18597;DHT22;9428;50.950;6.912;2023-01-31T11:06:09;7.30;99.90
18597;DHT22;9428;50.950;6.912;2023-01-31T11:08:59;7.30;99.90
18597;DHT22;9428;50.950;6.912;2023-01-31T11:11:55;7.40;99.90
18597;DHT22;9428;50.950;6.912;2023-01-31T11:14:44;7.40;99.90
18597;DHT22;9428;50.950;6.912;2023-01-31T11:17:33;7.50;99.90
18597;DHT22;9428;50.950;6.912;2023-01-31T11:20:25;7.60;99.90
18597;DHT22;9428;50.950;6.912;2023-01-31T11:23:15;7.50;99.90
18597;DHT22;9428;50.950;6.912;2023-01-31T11:26:03;7.60;99.90
18597;DHT22;9428;50.950;6.912;2023-01-31T11:28:51;7.50;99.90
18597;DHT22;9428;50.950;6.912;2023-01-31T11:31:42;8.30;99.90
18597;DHT22;9428;50.950;6.912;2023-01-31T11:34:32;7.60;99.90
18597;DHT22;9428;50.950;6.912;2023-01-31T11:37:19;7.70;99.90
18597;DHT22;9428;50.950;6.912;2023-01-31T11:40:19;7.60;99.90
18597;DHT22;9428;50.950;6.912;2023-01-31T11:43:24;7.60;99.90
18597;DHT22;9428;50.950;6.912;2023-01-31T11:46:12;7.80;99.90
18597;DHT22;9428;50.950;6.912;2023-01-31T11:49:10;7.80;99.90
18597;DHT22;9428;50.950;6.912;2023-01-31T11:52:00;7.90;99.90
18597;DHT22;9428;50.950;6.912;2023-01-31T11:54:50;7.80;99.90
18597;DHT22;9428;50.950;6.912;2023-01-31T11:57:38;7.90;99.90
18597;DHT22;9428;50.950;6.912;2023-01-31T12:00:29;7.90;99.90
18597;DHT22;9428;50.950;6.912;2023-01-31T12:03:17;7.90;99.90
18597;DHT22;9428;50.950;6.912;2023-01-31T12:06:08;7.80;99.90
18597;DHT22;9428;50.950;6.912;2023-01-31T12:08:57;7.80;99.90
18597;DHT22;9428;50.950;6.912;2023-01-31T12:11:51;7.80;99.90
18597;DHT22;9428;50.950;6.912;2023-01-31T12:14:40;7.70;99.90
18597;DHT22;9428;50.950;6.912;2023-01-31T12:17:30;8.10;99.90
18597;DHT22;9428;50.950;6.912;2023-01-31T12:20:22;7.70;99.90
18597;DHT22;9428;50.950;6.912;2023-01-31T12:23:26;7.80;99.90
18597;DHT22;9428;50.950;6.912;2023-01-31T12:26:24;7.80;99.90
18597;DHT22;9428;50.950;6.912;2023-01-31T12:29:36;8.10;99.90
18597;DHT22;9428;50.950;6.912;2023-01-31T12:32:42;7.80;99.90
18597;DHT22;9428;50.950;6.912;2023-01-31T12:35:47;7.70;99.90
18597;DHT22;9428;50.950;6.912;2023-01-31T12:39:05;7.70;99.90
18597;DHT22;9428;50.950;6.912;2023-01-31T12:42:16;7.70;99.90
18597;DHT22;9428;50.950;6.912;2023-01-31T12:45:20;7.60;99.90
18597;DHT22;9428;50.950;6.912;2023-01-31T12:48:35;7.60;99.90
18597;DHT22;9428;50.950;6.912;2023-01-31T12:51:38;7.80;99.90
18597;DHT22;9428;50.950;6.912;2023-01-31T12:54:43;7.80;99.90
18597;DHT22;9428;50.950;6.912;2023-01-31T12:57:41;7.70;99.90
18597;DHT22;9428;50.950;6.912;2023-01-31T13:00:40;7.70;99.90
18597;DHT22;9428;50.950;6.912;2023-01-31T13:03:36;8.20;99.90
18597;DHT22;9428;50.950;6.912;2023-01-31T13:06:29;7.70;99.90
18597;DHT22;9428;50.950;6.912;2023-01-31T13:09:20;8.00;99.90
18597;DHT22;9428;50.950;6.912;2023-01-31T13:12:13;7.80;99.90
18597;DHT22;9428;50.950;6.912;2023-01-31T13:15:05;7.80;99.90
18597;DHT22;9428;50.950;6.912;2023-01-31T13:17:58;7.70;99.90
18597;DHT22;9428;50.950;6.912;2023-01-31T13:20:49;7.70;99.90
18597;DHT22;9428;50.950;6.912;2023-01-31T13:23:40;7.60;99.90
18597;DHT22;9428;50.950;6.912;2023-01-31T13:26:31;7.60;99.90
18597;DHT22;9428;50.950;6.912;2023-01-31T13:29:25;7.70;99.90
18597;DHT22;9428;50.950;6.912;2023-01-31T13:32:19;7.70;99.90
18597;DHT22;9428;50.950;6.912;2023-01-31T13:35:15;7.70;99.90
18597;DHT22;9428;50.950;6.912;2023-01-31T13:38:10;7.60;99.90
18597;DHT22;9428;50.950;6.912;2023-01-31T13:41:01;7.60;99.90
18597;DHT22;9428;50.950;6.912;2023-01-31T13:43:50;7.70;99.90
18597;DHT22;9428;50.950;6.912;2023-01-31T13:46:43;7.60;99.90
18597;DHT22;9428;50.950;6.912;2023-01-31T13:49:35;7.60;99.90
18597;DHT22;9428;50.950;6.912;2023-01-31T13:52:28;7.60;99.90
18597;DHT22;9428;50.950;6.912;2023-01-31T13:55:19;7.60;99.90
18597;DHT22;9428;50.950;6.912;2023-01-31T13:58:15;7.60;99.90
18597;DHT22;9428;50.950;6.912;2023-01-31T14:01:06;7.70;99.90
18597;DHT22;9428;50.950;6.912;2023-01-31T14:04:33;7.60;99.90
18597;DHT22;9428;50.950;6.912;2023-01-31T14:07:22;7.40;99.90
18597;DHT22;9428;50.950;6.912;2023-01-31T14:10:27;7.30;99.90
18597;DHT22;9428;50.950;6.912;2023-01-31T14:16:38;7.40;99.90
18597;DHT22;9428;50.950;6.912;2023-01-31T14:20:01;7.30;99.90
18597;DHT22;9428;50.950;6.912;2023-01-31T14:26:33;7.30;99.90
18597;DHT22;9428;50.950;6.912;2023-01-31T14:29:26;7.20;99.90
18597;DHT22;9428;50.950;6.912;2023-01-31T14:32:15;7.40;99.90
18597;DHT22;9428;50.950;6.912;2023-01-31T14:35:32;8.10;99.90
18597;DHT22;9428;50.950;6.912;2023-01-31T14:38:29;7.20;99.90
18597;DHT22;9428;50.950;6.912;2023-01-31T14:41:28;6.60;99.90
18597;DHT22;9428;50.950;6.912;2023-01-31T14:44:27;7.20;99.90
18597;DHT22;9428;50.950;6.912;2023-01-31T14:47:29;7.20;99.90
18597;DHT22;9428;50.950;6.912;2023-01-31T14:50:34;7.20;99.90
18597;DHT22;9428;50.950;6.912;2023-01-31T14:53:41;7.30;99.90
18597;DHT22;9428;50.950;6.912;2023-01-31T14:56:49;7.30;99.90
18597;DHT22;9428;50.950;6.912;2023-01-31T14:59:44;7.40;99.90
18597;DHT22;9428;50.950;6.912;2023-01-31T15:02:43;7.40;99.90
18597;DHT22;9428;50.950;6.912;2023-01-31T15:05:45;7.30;99.90
18597;DHT22;9428;50.950;6.912;2023-01-31T15:08:42;7.30;99.90
18597;DHT22;9428;50.950;6.912;2023-01-31T15:11:38;7.40;99.90
18597;DHT22;9428;50.950;6.912;2023-01-31T15:14:29;7.30;99.90
18597;DHT22;9428;50.950;6.912;2023-01-31T15:17:20;7.30;99.90
18597;DHT22;9428;50.950;6.912;2023-01-31T15:20:15;7.20;99.90
18597;DHT22;9428;50.950;6.912;2023-01-31T15:23:06;7.20;99.90
18597;DHT22;9428;50.950;6.912;2023-01-31T15:25:59;7.20;99.90
18597;DHT22;9428;50.950;6.912;2023-01-31T15:28:50;7.20;99.90
18597;DHT22;9428;50.950;6.912;2023-01-31T15:31:42;7.20;99.90
18597;DHT22;9428;50.950;6.912;2023-01-31T15:34:32;7.30;99.90
18597;DHT22;9428;50.950;6.912;2023-01-31T15:37:22;7.90;99.90
18597;DHT22;9428;50.950;6.912;2023-01-31T15:40:17;7.30;99.90
18597;DHT22;9428;50.950;6.912;2023-01-31T15:43:15;7.50;99.90
18597;DHT22;9428;50.950;6.912;2023-01-31T15:46:12;7.20;99.90
18597;DHT22;9428;50.950;6.912;2023-01-31T15:48:59;7.20;99.90
18597;DHT22;9428;50.950;6.912;2023-01-31T15:52:02;7.20;99.90
18597;DHT22;9428;50.950;6.912;2023-01-31T15:54:54;7.20;99.90
18597;DHT22;9428;50.950;6.912;2023-01-31T15:57:47;7.70;99.90
18597;DHT22;9428;50.950;6.912;2023-01-31T16:00:47;7.20;99.90
18597;DHT22;9428;50.950;6.912;2023-01-31T16:03:39;7.80;99.90
18597;DHT22;9428;50.950;6.912;2023-01-31T16:06:30;7.30;99.90
18597;DHT22;9428;50.950;6.912;2023-01-31T16:09:25;7.30;99.90
18597;DHT22;9428;50.950;6.912;2023-01-31T16:12:13;7.50;99.90
18597;DHT22;9428;50.950;6.912;2023-01-31T16:15:05;7.40;99.90
18597;DHT22;9428;50.950;6.912;2023-01-31T16:17:55;7.30;99.90
18597;DHT22;9428;50.950;6.912;2023-01-31T16:20:45;7.40;99.90
18597;DHT22;9428;50.950;6.912;2023-01-31T16:23:35;7.40;99.90
18597;DHT22;9428;50.950;6.912;2023-01-31T16:26:24;7.30;99.90
18597;DHT22;9428;50.950;6.912;2023-01-31T16:29:14;7.40;99.90
18597;DHT22;9428;50.950;6.912;2023-01-31T16:32:19;7.40;99.90
18597;DHT22;9428;50.950;6.912;2023-01-31T16:35:18;7.30;99.90
18597;DHT22;9428;50.950;6.912;2023-01-31T16:38:15;7.30;99.90
18597;DHT22;9428;50.950;6.912;2023-01-31T16:41:05;7.40;99.90
18597;DHT22;9428;50.950;6.912;2023-01-31T16:43:57;7.40;99.90
18597;DHT22;9428;50.950;6.912;2023-01-31T16:46:48;6.80;99.90
18597;DHT22;9428;50.950;6.912;2023-01-31T16:49:36;7.40;99.90
18597;DHT22;9428;50.950;6.912;2023-01-31T16:52:28;7.40;99.90
18597;DHT22;9428;50.950;6.912;2023-01-31T16:55:17;7.50;99.90
18597;DHT22;9428;50.950;6.912;2023-01-31T16:58:04;7.40;99.90
18597;DHT22;9428;50.950;6.912;2023-01-31T17:00:51;7.50;99.90
18597;DHT22;9428;50.950;6.912;2023-01-31T17:03:41;7.50;99.90
18597;DHT22;9428;50.950;6.912;2023-01-31T17:06:30;7.50;99.90
18597;DHT22;9428;50.950;6.912;2023-01-31T17:09:20;7.60;99.90
18597;DHT22;9428;50.950;6.912;2023-01-31T17:12:17;7.60;99.90
18597;DHT22;9428;50.950;6.912;2023-01-31T17:15:12;7.60;99.90
18597;DHT22;9428;50.950;6.912;2023-01-31T17:18:00;7.60;99.90
18597;DHT22;9428;50.950;6.912;2023-01-31T17:20:47;7.60;99.90
18597;DHT22;9428;50.950;6.912;2023-01-31T17:23:37;7.60;99.90
18597;DHT22;9428;50.950;6.912;2023-01-31T17:26:25;7.60;99.90
18597;DHT22;9428;50.950;6.912;2023-01-31T17:29:12;7.60;99.90
18597;DHT22;9428;50.950;6.912;2023-01-31T17:31:59;7.60;99.90
18597;DHT22;9428;50.950;6.912;2023-01-31T17:34:50;7.70;99.90
18597;DHT22;9428;50.950;6.912;2023-01-31T17:37:37;7.70;99.90
18597;DHT22;9428;50.950;6.912;2023-01-31T17:40:26;7.60;99.90
18597;DHT22;9428;50.950;6.912;2023-01-31T17:43:19;7.70;99.90
18597;DHT22;9428;50.950;6.912;2023-01-31T17:46:09;7.80;99.90
18597;DHT22;9428;50.950;6.912;2023-01-31T17:48:57;7.80;99.90
18597;DHT22;9428;50.950;6.912;2023-01-31T17:51:45;7.70;99.90
18597;DHT22;9428;50.950;6.912;2023-01-31T17:54:32;7.70;99.90
18597;DHT22;9428;50.950;6.912;2023-01-31T17:57:21;7.70;99.90
18597;DHT22;9428;50.950;6.912;2023-01-31T18:00:12;7.70;99.90
18597;DHT22;9428;50.950;6.912;2023-01-31T18:03:00;7.70;99.90
18597;DHT22;9428;50.950;6.912;2023-01-31T18:05:47;7.70;99.90
18597;DHT22;9428;50.950;6.912;2023-01-31T18:08:35;8.10;99.90
18597;DHT22;9428;50.950;6.912;2023-01-31T18:11:22;7.70;99.90
18597;DHT22;9428;50.950;6.912;2023-01-31T18:14:11;7.70;99.90
18597;DHT22;9428;50.950;6.912;2023-01-31T18:16:58;7.70;99.90
18597;DHT22;9428;50.950;6.912;2023-01-31T18:19:46;7.70;99.90
18597;DHT22;9428;50.950;6.912;2023-01-31T18:22:34;7.80;99.90
18597;DHT22;9428;50.950;6.912;2023-01-31T18:25:22;7.70;99.90
18597;DHT22;9428;50.950;6.912;2023-01-31T18:28:09;7.70;99.90
18597;DHT22;9428;50.950;6.912;2023-01-31T18:31:01;7.70;99.90
18597;DHT22;9428;50.950;6.912;2023-01-31T18:33:48;7.70;99.90
18597;DHT22;9428;50.950;6.912;2023-01-31T18:36:36;7.70;99.90
18597;DHT22;9428;50.950;6.912;2023-01-31T18:39:24;7.20;99.90
18597;DHT22;9428;50.950;6.912;2023-01-31T18:42:11;7.80;99.90
18597;DHT22;9428;50.950;6.912;2023-01-31T18:44:58;7.70;99.90
18597;DHT22;9428;50.950;6.912;2023-01-31T18:47:48;7.80;99.90
18597;DHT22;9428;50.950;6.912;2023-01-31T18:50:36;7.80;99.90